Time;durP1;ratioP1;P1;durP2;ratioP2;P2;SDS_P1;SDS_P2;PMS_P1;PMS_P2;Temp;Humidity;BMP_temperature;BMP_pressure;BME280_temperature;BME280_humidity;BME280_pressure;Samples;Min_cycle;Max_cycle;Signal;HPM_P1;HPM_P2
2022/07/09 00:00:34;;;;;;;6.28;3.20;;;16.30;99.90;;;;;;4878569;29;20049;-65
2022/07/09 00:02:59;;;;;;;5.57;3.13;;;16.30;99.90;;;;;;4893943;29;20055;-65
2022/07/09 00:05:25;;;;;;;6.43;3.38;;;16.30;99.90;;;;;;4879775;29;20091;-66
2022/07/09 00:07:51;;;;;;;9.20;3.58;;;16.20;99.90;;;;;;4883644;29;20040;-64
2022/07/09 00:10:17;;;;;;;8.55;3.88;;;16.20;99.90;;;;;;4882086;29;20060;-65
2022/07/09 00:12:42;;;;;;;6.75;3.40;;;16.30;99.90;;;;;;4883035;29;20165;-65
2022/07/09 00:15:08;;;;;;;6.55;3.45;;;16.30;99.90;;;;;;4882960;29;20092;-65
2022/07/09 00:17:34;;;;;;;6.38;3.38;;;16.30;99.90;;;;;;4883380;29;20045;-65
2022/07/09 00:20:02;;;;;;;7.63;3.90;;;16.30;99.90;;;;;;4882910;29;20217;-66
2022/07/09 00:22:28;;;;;;;5.90;3.00;;;16.30;99.90;;;;;;4882923;29;20056;-66
2022/07/09 00:24:53;;;;;;;6.80;2.97;;;16.30;99.90;;;;;;4882824;29;20049;-66
2022/07/09 00:27:19;;;;;;;6.13;3.08;;;16.30;99.90;;;;;;4881471;29;20081;-66
2022/07/09 00:29:45;;;;;;;4.40;3.50;;;16.30;99.90;;;;;;4882772;29;20132;-66
2022/07/09 00:32:10;;;;;;;6.30;3.40;;;16.30;99.90;;;;;;4865917;29;20057;-66
2022/07/09 00:34:36;;;;;;;5.15;3.05;;;16.30;99.90;;;;;;4897148;29;20052;-66
2022/07/09 00:37:02;;;;;;;8.32;3.10;;;16.30;99.90;;;;;;4882569;29;20047;-65
2022/07/09 00:39:27;;;;;;;6.00;2.83;;;16.40;99.90;;;;;;4882686;29;20049;-66
2022/07/09 00:42:24;;;;;;;9.00;3.65;;;16.40;99.90;;;;;;4881544;29;20375;-66
2022/07/09 00:44:50;;;;;;;8.25;2.80;;;16.40;99.90;;;;;;4874836;29;20272;-65
2022/07/09 00:47:16;;;;;;;5.55;3.13;;;16.40;99.90;;;;;;4882433;29;20045;-66
2022/07/09 00:49:42;;;;;;;5.88;2.95;;;16.40;99.90;;;;;;4881712;29;20073;-66
2022/07/09 00:52:12;;;;;;;6.82;2.97;;;16.50;99.90;;;;;;4896808;29;20049;-66
2022/07/09 00:54:39;;;;;;;7.63;3.53;;;16.50;99.90;;;;;;4882139;29;20053;-66
2022/07/09 00:57:07;;;;;;;6.50;3.00;;;16.50;99.90;;;;;;4882393;29;20065;-66
2022/07/09 00:59:34;;;;;;;5.15;2.80;;;16.50;99.90;;;;;;4881244;29;20112;-66
2022/07/09 01:02:01;;;;;;;6.72;3.10;;;16.50;99.90;;;;;;4881242;29;20053;-66
2022/07/09 01:04:27;;;;;;;5.97;3.08;;;16.60;99.90;;;;;;4881961;29;20141;-66
2022/07/09 01:06:53;;;;;;;5.22;2.70;;;16.60;99.90;;;;;;4882150;29;20128;-66
2022/07/09 01:09:18;;;;;;;5.85;2.92;;;16.60;99.90;;;;;;4882601;29;20372;-65
2022/07/09 01:11:45;;;;;;;4.53;2.55;;;16.60;99.90;;;;;;4882013;29;20049;-66
2022/07/09 01:14:12;;;;;;;8.77;3.40;;;16.60;99.90;;;;;;4896901;29;20053;-66
2022/07/09 01:16:38;;;;;;;5.90;2.90;;;16.50;99.90;;;;;;4882339;29;20056;-66
2022/07/09 01:19:04;;;;;;;6.15;3.08;;;16.50;99.90;;;;;;4880815;29;20053;-66
2022/07/09 01:21:30;;;;;;;6.05;3.45;;;16.50;99.90;;;;;;4880873;29;20049;-66
2022/07/09 01:23:56;;;;;;;5.47;2.90;;;16.50;99.90;;;;;;4881099;29;20053;-66
2022/07/09 01:26:23;;;;;;;8.10;3.30;;;16.50;99.90;;;;;;4881760;29;20063;-66
2022/07/09 01:28:49;;;;;;;6.93;3.47;;;16.60;99.90;;;;;;4881741;29;20049;-66
2022/07/09 01:31:15;;;;;;;7.22;3.58;;;16.60;99.90;;;;;;4881839;29;20056;-66
2022/07/09 01:33:41;;;;;;;5.88;2.95;;;16.60;99.90;;;;;;4881474;29;20570;-66
2022/07/09 01:36:07;;;;;;;8.63;4.70;;;16.50;99.90;;;;;;4880696;29;20044;-66
2022/07/09 01:38:33;;;;;;;6.70;3.33;;;16.60;99.90;;;;;;4880796;29;20419;-66
2022/07/09 01:40:59;;;;;;;8.50;4.30;;;16.60;99.90;;;;;;4895996;29;20131;-66
2022/07/09 01:43:25;;;;;;;9.57;4.57;;;16.60;99.90;;;;;;4881469;29;20045;-66
2022/07/09 01:45:50;;;;;;;9.18;4.50;;;16.50;99.90;;;;;;4881413;29;20089;-66
2022/07/09 01:48:16;;;;;;;7.32;3.67;;;16.60;99.90;;;;;;4881901;29;20091;-66
2022/07/09 01:50:42;;;;;;;8.10;4.32;;;16.60;99.90;;;;;;4881536;29;20049;-66
2022/07/09 01:53:08;;;;;;;9.38;4.47;;;16.50;99.90;;;;;;4881100;29;20053;-66
2022/07/09 01:55:33;;;;;;;9.50;4.75;;;16.50;99.90;;;;;;4881192;29;20455;-66
2022/07/09 01:57:59;;;;;;;11.27;4.72;;;16.50;99.90;;;;;;4881298;29;20079;-66
2022/07/09 02:00:27;;;;;;;9.35;4.70;;;16.50;99.90;;;;;;4881157;29;20056;-66
2022/07/09 02:02:54;;;;;;;11.48;4.72;;;16.50;99.90;;;;;;4880931;29;20053;-66
2022/07/09 02:05:20;;;;;;;7.60;4.78;;;16.50;99.90;;;;;;4880151;29;20079;-66
2022/07/09 02:07:46;;;;;;;9.77;5.00;;;16.50;99.90;;;;;;4881018;29;20049;-66
2022/07/09 02:10:12;;;;;;;9.77;5.13;;;16.50;99.90;;;;;;4895871;29;20060;-66
2022/07/09 02:12:39;;;;;;;13.32;5.30;;;16.50;99.90;;;;;;4880662;29;20512;-66
2022/07/09 02:15:06;;;;;;;8.15;4.80;;;16.60;99.90;;;;;;4880885;29;20049;-66
2022/07/09 02:17:32;;;;;;;10.23;5.18;;;16.60;99.90;;;;;;4895679;29;20049;-65
2022/07/09 02:19:58;;;;;;;9.52;4.95;;;16.60;99.90;;;;;;4880817;29;20048;-65
2022/07/09 02:22:23;;;;;;;10.45;5.32;;;16.60;99.90;;;;;;4881274;29;20060;-65
2022/07/09 02:24:49;;;;;;;11.65;4.78;;;16.60;99.90;;;;;;4881521;29;20461;-65
2022/07/09 02:27:15;;;;;;;12.25;5.50;;;16.50;99.90;;;;;;4880631;29;20049;-66
2022/07/09 02:29:40;;;;;;;9.50;5.50;;;16.50;99.90;;;;;;4879178;29;20112;-65
2022/07/09 02:32:06;;;;;;;10.57;4.93;;;16.50;99.90;;;;;;4880497;29;20387;-65
2022/07/09 02:34:32;;;;;;;8.88;4.90;;;16.60;99.90;;;;;;4880527;29;20485;-66
2022/07/09 02:36:58;;;;;;;10.18;4.88;;;16.50;99.90;;;;;;4880225;29;20049;-65
2022/07/09 02:39:23;;;;;;;8.25;4.82;;;16.50;99.90;;;;;;4880524;29;20057;-65
2022/07/09 02:41:50;;;;;;;10.48;4.95;;;16.50;99.90;;;;;;4880422;29;20060;-65
2022/07/09 02:44:15;;;;;;;8.60;4.55;;;16.60;99.90;;;;;;4880860;29;20048;-65
2022/07/09 02:46:41;;;;;;;7.32;4.35;;;16.50;99.90;;;;;;4879133;29;20086;-65
2022/07/09 02:49:07;;;;;;;8.93;4.88;;;16.50;99.90;;;;;;4880825;29;20053;-65
2022/07/09 02:51:32;;;;;;;9.60;4.70;;;16.50;99.90;;;;;;4880836;29;20426;-65
2022/07/09 02:53:58;;;;;;;10.48;4.50;;;16.60;99.90;;;;;;4863537;29;20064;-66
2022/07/09 02:56:24;;;;;;;11.35;4.35;;;16.60;99.90;;;;;;4894316;29;20124;-65
2022/07/09 02:58:49;;;;;;;8.88;4.70;;;16.60;99.90;;;;;;4878868;29;20509;-65
2022/07/09 03:01:15;;;;;;;7.47;4.13;;;16.50;99.90;;;;;;4879178;29;20137;-66
2022/07/09 03:03:41;;;;;;;13.60;5.00;;;16.50;99.90;;;;;;4880059;29;20058;-65
2022/07/09 03:06:08;;;;;;;9.43;4.57;;;16.50;99.90;;;;;;4879075;29;20055;-66
2022/07/09 03:08:34;;;;;;;9.57;4.43;;;16.60;99.90;;;;;;4880110;29;20048;-65
2022/07/09 03:11:00;;;;;;;9.00;4.15;;;16.50;99.90;;;;;;4880028;29;20482;-65
2022/07/09 03:13:26;;;;;;;10.25;4.68;;;16.50;99.90;;;;;;4879077;29;20135;-66
2022/07/09 03:15:51;;;;;;;8.02;4.20;;;16.50;99.90;;;;;;4880448;29;20141;-66
2022/07/09 03:18:17;;;;;;;9.82;4.35;;;16.50;99.90;;;;;;4894222;29;20071;-66
2022/07/09 03:20:43;;;;;;;11.63;4.30;;;16.50;99.90;;;;;;4880665;29;20049;-64
2022/07/09 03:23:08;;;;;;;7.78;3.70;;;16.50;99.90;;;;;;4863458;29;20163;-65
2022/07/09 03:25:34;;;;;;;9.57;4.10;;;16.50;99.90;;;;;;4878758;29;20051;-65
2022/07/09 03:28:00;;;;;;;6.60;4.00;;;16.50;99.90;;;;;;4878622;29;20059;-66
2022/07/09 03:30:25;;;;;;;6.45;3.88;;;16.50;99.90;;;;;;4879575;29;20056;-65
2022/07/09 03:32:51;;;;;;;7.28;3.72;;;16.50;99.90;;;;;;4879551;29;20048;-65
2022/07/09 03:35:17;;;;;;;8.07;3.88;;;16.50;99.90;;;;;;4879841;29;20480;-65
2022/07/09 03:37:43;;;;;;;7.78;4.03;;;16.40;99.90;;;;;;4894621;29;20136;-65
2022/07/09 03:40:09;;;;;;;8.05;4.07;;;16.40;99.90;;;;;;4879700;29;20053;-65
2022/07/09 03:42:35;;;;;;;8.43;3.38;;;16.40;99.90;;;;;;4883177;29;20060;-65
2022/07/09 03:45:01;;;;;;;7.75;3.25;;;16.40;99.90;;;;;;4884048;29;20075;-65
2022/07/09 03:47:26;;;;;;;8.45;3.63;;;16.40;99.90;;;;;;4883335;29;20123;-65
2022/07/09 03:49:52;;;;;;;8.98;3.55;;;16.40;99.90;;;;;;4882558;29;20060;-65
2022/07/09 03:52:18;;;;;;;8.38;3.78;;;16.40;99.90;;;;;;4883413;29;20052;-65
2022/07/09 03:54:44;;;;;;;9.60;3.97;;;16.40;99.90;;;;;;4882266;29;20041;-65
2022/07/09 03:57:10;;;;;;;7.85;3.95;;;16.40;99.90;;;;;;4883058;29;20053;-65
2022/07/09 03:59:36;;;;;;;10.93;4.15;;;16.40;99.90;;;;;;4882127;29;20125;-65
2022/07/09 04:02:04;;;;;;;9.98;3.85;;;16.40;99.90;;;;;;4883523;29;20478;-66
2022/07/09 04:04:29;;;;;;;8.95;3.90;;;16.40;99.90;;;;;;4882494;29;20055;-65
2022/07/09 04:06:55;;;;;;;8.48;4.13;;;16.40;99.90;;;;;;4882720;29;20049;-65
2022/07/09 04:09:21;;;;;;;14.70;4.68;;;16.40;99.90;;;;;;4883101;29;20083;-65
2022/07/09 04:11:47;;;;;;;8.43;4.82;;;16.40;99.90;;;;;;4883125;29;20107;-65
2022/07/09 04:14:14;;;;;;;11.82;4.75;;;16.30;99.90;;;;;;4882606;29;20485;-65
2022/07/09 04:16:40;;;;;;;12.07;5.13;;;16.30;99.90;;;;;;4883447;29;20059;-65
2022/07/09 04:19:06;;;;;;;8.40;4.45;;;16.30;99.90;;;;;;4883019;29;20060;-66
2022/07/09 04:21:32;;;;;;;9.00;4.90;;;16.30;99.90;;;;;;4882935;29;20044;-66
2022/07/09 04:23:58;;;;;;;11.57;4.20;;;16.30;99.90;;;;;;4881914;29;20131;-66
2022/07/09 04:26:24;;;;;;;11.05;4.10;;;16.30;99.90;;;;;;4882830;29;20060;-66
2022/07/09 04:28:49;;;;;;;9.52;4.30;;;16.30;99.90;;;;;;4881747;29;20112;-65
2022/07/09 04:31:16;;;;;;;9.30;4.25;;;16.30;99.90;;;;;;4882971;29;20045;-66
2022/07/09 04:33:43;;;;;;;8.73;4.05;;;16.30;99.90;;;;;;4882658;29;20506;-65
2022/07/09 04:36:08;;;;;;;7.45;4.22;;;16.30;99.90;;;;;;4882575;29;20045;-65
2022/07/09 04:38:34;;;;;;;11.82;3.97;;;16.30;99.90;;;;;;4882658;29;20398;-65
2022/07/09 04:41:00;;;;;;;9.45;4.03;;;16.40;99.90;;;;;;4881869;29;20045;-65
2022/07/09 04:43:25;;;;;;;8.00;4.05;;;16.30;99.90;;;;;;4882543;29;20401;-65
2022/07/09 04:45:51;;;;;;;7.05;3.60;;;16.40;99.90;;;;;;4882084;29;20105;-66
2022/07/09 04:48:17;;;;;;;6.97;3.08;;;16.40;99.90;;;;;;4882475;29;20057;-65
2022/07/09 04:50:42;;;;;;;5.82;3.28;;;16.40;99.90;;;;;;4882391;29;20108;-65
2022/07/09 04:53:08;;;;;;;10.73;3.72;;;16.40;99.90;;;;;;4881069;29;20049;-65
2022/07/09 04:55:34;;;;;;;6.88;3.30;;;16.40;99.90;;;;;;4882377;29;20147;-65
2022/07/09 04:57:59;;;;;;;8.57;3.75;;;16.40;99.90;;;;;;4882178;29;20064;-65
2022/07/09 05:00:25;;;;;;;9.40;3.67;;;16.40;99.90;;;;;;4882759;29;20056;-65
2022/07/09 05:02:51;;;;;;;11.40;4.45;;;16.50;99.90;;;;;;4881257;29;20053;-65
2022/07/09 05:05:18;;;;;;;7.40;3.42;;;16.50;99.90;;;;;;4881879;29;20045;-66
2022/07/09 05:07:44;;;;;;;9.63;4.60;;;16.50;99.90;;;;;;4882110;29;20049;-66
2022/07/09 05:10:10;;;;;;;7.90;4.20;;;16.50;99.90;;;;;;4882327;29;20049;-65
2022/07/09 05:12:36;;;;;;;7.28;4.22;;;16.50;99.90;;;;;;4882830;29;20124;-65
2022/07/09 05:15:02;;;;;;;7.88;4.07;;;16.50;99.90;;;;;;4882004;29;20064;-65
2022/07/09 05:17:28;;;;;;;11.45;4.05;;;16.60;99.90;;;;;;4882659;29;20370;-65
2022/07/09 05:19:54;;;;;;;7.60;3.55;;;16.60;99.90;;;;;;4881891;29;20498;-65
2022/07/09 05:22:20;;;;;;;7.57;3.20;;;16.60;99.90;;;;;;4882355;29;20056;-65
2022/07/09 05:24:45;;;;;;;7.32;3.63;;;16.60;99.90;;;;;;4881826;29;20132;-65
2022/07/09 05:27:11;;;;;;;7.80;3.20;;;16.70;99.90;;;;;;4882312;29;20363;-65
2022/07/09 05:29:37;;;;;;;7.55;3.22;;;16.70;99.90;;;;;;4880688;29;20056;-65
2022/07/09 05:32:04;;;;;;;7.57;3.15;;;16.70;99.90;;;;;;4880736;29;20049;-66
2022/07/09 05:34:29;;;;;;;6.10;3.15;;;16.70;99.90;;;;;;4881609;29;20044;-65
2022/07/09 05:36:55;;;;;;;6.25;3.00;;;16.70;99.90;;;;;;4881310;29;20097;-65
2022/07/09 05:39:22;;;;;;;5.95;2.67;;;16.80;99.90;;;;;;4881558;29;20074;-65
2022/07/09 05:41:48;;;;;;;7.47;3.00;;;16.80;99.90;;;;;;4881587;29;20140;-65
2022/07/09 05:44:14;;;;;;;6.30;3.20;;;16.80;99.90;;;;;;4880498;29;20053;-65
2022/07/09 05:46:40;;;;;;;7.30;2.97;;;16.80;99.90;;;;;;4881702;29;20101;-65
2022/07/09 05:49:06;;;;;;;6.40;3.20;;;16.80;99.90;;;;;;4881404;29;20059;-65
2022/07/09 05:51:32;;;;;;;5.05;2.83;;;16.90;99.90;;;;;;4881374;29;20053;-66
2022/07/09 05:53:58;;;;;;;5.32;2.17;;;16.90;99.90;;;;;;4881278;29;20048;-66
2022/07/09 05:56:24;;;;;;;5.72;2.83;;;16.90;99.90;;;;;;4879780;29;20382;-65
2022/07/09 05:58:50;;;;;;;5.18;2.70;;;16.90;99.90;;;;;;4881130;29;20057;-66
2022/07/09 06:01:15;;;;;;;4.50;2.67;;;17.00;99.90;;;;;;4880206;29;20060;-65
2022/07/09 06:03:42;;;;;;;4.82;2.78;;;17.00;99.90;;;;;;4880560;29;20045;-65
2022/07/09 06:06:09;;;;;;;7.47;2.83;;;17.00;99.90;;;;;;4881850;29;20048;-66
2022/07/09 06:08:35;;;;;;;4.85;2.20;;;17.00;99.90;;;;;;4881038;29;20135;-65
2022/07/09 06:11:01;;;;;;;6.22;2.40;;;17.00;99.90;;;;;;4895067;29;20501;-65
2022/07/09 06:13:27;;;;;;;6.82;2.38;;;17.10;99.90;;;;;;4880949;29;20060;-65
2022/07/09 06:15:53;;;;;;;4.85;2.05;;;17.10;99.90;;;;;;4880729;29;20120;-66
2022/07/09 06:18:19;;;;;;;5.25;2.38;;;17.10;99.90;;;;;;4881332;29;20052;-65
2022/07/09 06:20:45;;;;;;;5.82;2.17;;;17.20;99.90;;;;;;4880890;29;20132;-65
2022/07/09 06:23:12;;;;;;;6.07;2.38;;;17.20;99.90;;;;;;4880812;29;20057;-65
2022/07/09 06:25:41;;;;;;;5.07;2.08;;;17.20;99.90;;;;;;4880050;29;20053;-65
2022/07/09 06:28:07;;;;;;;4.43;2.10;;;17.30;99.90;;;;;;4880617;29;20545;-65
2022/07/09 06:30:36;;;;;;;6.07;2.65;;;17.30;99.90;;;;;;4880633;29;20057;-66
2022/07/09 06:33:02;;;;;;;3.58;2.00;;;17.30;99.90;;;;;;4881455;29;20374;-66
2022/07/09 06:35:28;;;;;;;5.38;2.25;;;17.30;99.90;;;;;;4879921;29;20486;-65
2022/07/09 06:37:54;;;;;;;6.78;2.30;;;17.40;99.90;;;;;;4879290;29;20096;-66
2022/07/09 06:40:19;;;;;;;5.13;2.10;;;17.40;99.90;;;;;;4880705;29;20064;-66
2022/07/09 06:42:45;;;;;;;3.92;1.90;;;17.40;99.90;;;;;;4879821;29;20049;-65
2022/07/09 06:45:11;;;;;;;3.97;2.33;;;17.50;99.90;;;;;;4880439;29;20048;-65
2022/07/09 06:47:36;;;;;;;5.60;2.20;;;17.50;99.90;;;;;;4879440;29;20135;-65
2022/07/09 06:50:02;;;;;;;7.80;2.00;;;17.40;99.90;;;;;;4880290;29;20096;-65
2022/07/09 06:52:28;;;;;;;4.82;2.13;;;17.50;99.90;;;;;;4880774;29;20080;-65
2022/07/09 06:54:54;;;;;;;4.97;2.40;;;17.50;99.90;;;;;;4879048;29;20095;-65
2022/07/09 06:57:20;;;;;;;4.97;2.30;;;17.50;99.90;;;;;;4879521;29;20459;-66
2022/07/09 06:59:46;;;;;;;5.97;1.98;;;17.50;99.90;;;;;;4879227;29;20132;-65
2022/07/09 07:02:13;;;;;;;3.92;2.08;;;17.50;99.90;;;;;;4879911;29;20482;-66
2022/07/09 07:04:39;;;;;;;4.97;2.15;;;17.50;99.90;;;;;;4879830;29;20565;-66
2022/07/09 07:07:04;;;;;;;4.18;1.70;;;17.50;99.90;;;;;;4880423;29;20131;-65
2022/07/09 07:09:30;;;;;;;4.28;2.03;;;17.60;99.90;;;;;;4878892;29;20052;-65
2022/07/09 07:11:57;;;;;;;3.72;1.60;;;17.60;99.90;;;;;;4863668;29;20471;-66
2022/07/09 07:14:23;;;;;;;3.33;1.85;;;17.60;99.90;;;;;;4879714;29;20573;-65
2022/07/09 07:16:48;;;;;;;3.50;1.40;;;17.60;99.90;;;;;;4879589;29;20084;-66
2022/07/09 07:19:14;;;;;;;6.55;1.67;;;17.70;99.90;;;;;;4879915;29;20096;-66
2022/07/09 07:21:40;;;;;;;5.20;1.92;;;17.70;99.90;;;;;;4878970;29;20231;-66
2022/07/09 07:24:06;;;;;;;2.78;1.70;;;17.80;99.90;;;;;;4879835;29;20045;-65
2022/07/09 07:26:36;;;;;;;4.80;1.50;;;17.80;99.90;;;;;;4879873;29;20049;-65
2022/07/09 07:29:02;;;;;;;3.78;1.35;;;17.80;99.90;;;;;;4878824;29;20088;-65
2022/07/09 07:31:28;;;;;;;3.63;1.48;;;17.90;99.90;;;;;;4879844;29;20053;-65
2022/07/09 07:33:53;;;;;;;3.70;1.50;;;17.90;99.90;;;;;;4878751;29;20056;-66
2022/07/09 07:36:19;;;;;;;4.28;1.30;;;18.00;99.90;;;;;;4879093;29;20136;-66
2022/07/09 07:38:45;;;;;;;4.28;1.48;;;18.00;99.90;;;;;;4880685;29;20041;-66
2022/07/09 07:41:12;;;;;;;4.38;1.40;;;18.10;99.90;;;;;;4878932;29;20498;-65
2022/07/09 07:43:38;;;;;;;2.83;1.38;;;18.10;99.90;;;;;;4878711;29;20438;-65
2022/07/09 07:46:04;;;;;;;6.07;1.45;;;18.10;99.90;;;;;;4878621;29;20409;-65
2022/07/09 07:48:30;;;;;;;4.57;1.42;;;18.20;99.90;;;;;;4879870;29;20045;-65
2022/07/09 07:50:56;;;;;;;6.05;1.67;;;18.20;99.90;;;;;;4880105;29;20060;-65
2022/07/09 07:53:22;;;;;;;4.53;1.35;;;18.20;99.90;;;;;;4880572;29;20112;-65
2022/07/09 07:55:51;;;;;;;2.58;1.10;;;18.20;99.90;;;;;;4894165;29;20167;-65
2022/07/09 07:58:17;;;;;;;6.75;1.48;;;18.30;99.90;;;;;;4879614;29;20053;-65
2022/07/09 08:00:43;;;;;;;5.70;1.10;;;18.30;99.90;;;;;;4880521;29;20052;-65
2022/07/09 08:03:08;;;;;;;3.58;1.13;;;18.40;99.90;;;;;;4879686;29;20056;-66
2022/07/09 08:05:34;;;;;;;4.40;1.20;;;18.50;99.90;;;;;;4878477;29;20453;-65
2022/07/09 08:08:00;;;;;;;2.92;1.00;;;18.50;99.90;;;;;;4879676;29;20045;-65
2022/07/09 08:10:26;;;;;;;3.30;1.20;;;18.60;99.90;;;;;;4879864;29;20049;-65
2022/07/09 08:12:52;;;;;;;5.07;0.80;;;18.60;99.90;;;;;;4878491;29;20136;-65
2022/07/09 08:15:17;;;;;;;4.20;0.90;;;18.60;99.90;;;;;;4879798;29;20105;-65
2022/07/09 08:17:44;;;;;;;4.55;0.80;;;18.60;99.90;;;;;;4863729;29;20049;-65
2022/07/09 08:20:10;;;;;;;2.25;1.65;;;18.60;99.90;;;;;;4879545;29;20090;-65
2022/07/09 08:22:36;;;;;;;2.85;0.70;;;18.70;99.90;;;;;;4879576;29;20478;-66
2022/07/09 08:25:03;;;;;;;3.00;0.70;;;18.70;99.90;;;;;;4880035;29;20049;-66
2022/07/09 08:27:29;;;;;;;1.73;0.70;;;18.60;99.90;;;;;;4880254;29;20064;-66
2022/07/09 08:29:55;;;;;;;2.63;0.90;;;18.60;99.90;;;;;;4881779;29;20049;-66
2022/07/09 08:32:20;;;;;;;2.83;0.70;;;18.70;99.90;;;;;;4866521;29;20053;-66
2022/07/09 08:34:46;;;;;;;2.63;0.80;;;18.70;99.90;;;;;;4897279;29;20044;-66
2022/07/09 08:37:12;;;;;;;2.05;0.77;;;18.80;99.90;;;;;;4882987;29;20052;-65
2022/07/09 08:39:37;;;;;;;2.67;0.80;;;18.90;99.90;;;;;;4883014;29;20056;-65
2022/07/09 08:42:09;;;;;;;3.13;0.80;;;19.00;99.90;;;;;;4882737;29;20049;-65
2022/07/09 08:44:38;;;;;;;5.40;0.68;;;19.00;99.90;;;;;;4882627;29;20056;-65
2022/07/09 08:47:05;;;;;;;2.20;0.90;;;19.00;99.90;;;;;;4882679;29;20081;-65
2022/07/09 08:49:31;;;;;;;2.20;0.80;;;19.00;99.90;;;;;;4882588;29;20061;-65
2022/07/09 08:51:57;;;;;;;2.58;0.80;;;19.10;99.90;;;;;;4883383;29;20174;-67
2022/07/09 08:54:23;;;;;;;3.92;0.80;;;19.00;99.90;;;;;;4883330;29;20478;-65
2022/07/09 08:56:53;;;;;;;3.08;0.85;;;19.00;99.90;;;;;;4865852;29;20465;-65
2022/07/09 08:59:18;;;;;;;3.83;0.80;;;19.00;99.90;;;;;;4883199;29;20053;-65
2022/07/09 09:01:44;;;;;;;2.38;0.85;;;19.00;99.90;;;;;;4883217;29;20477;-65
2022/07/09 09:04:10;;;;;;;2.20;0.80;;;19.00;99.90;;;;;;4882326;29;20402;-66
2022/07/09 09:06:38;;;;;;;5.88;0.90;;;18.90;99.90;;;;;;4882298;29;20057;-66
2022/07/09 09:09:03;;;;;;;3.80;0.70;;;18.90;99.90;;;;;;4896741;29;20057;-66
2022/07/09 09:11:31;;;;;;;4.82;1.10;;;19.00;99.90;;;;;;4881015;29;20063;-66
2022/07/09 09:13:57;;;;;;;3.58;0.80;;;19.10;99.90;;;;;;4882225;29;20063;-66
2022/07/09 09:16:24;;;;;;;1.50;0.77;;;19.20;99.90;;;;;;4882062;29;20190;-66
2022/07/09 09:18:52;;;;;;;4.80;0.73;;;19.20;99.90;;;;;;4882070;29;20044;-66
2022/07/09 09:21:23;;;;;;;2.28;0.82;;;19.30;99.90;;;;;;4882036;29;20464;-66
2022/07/09 09:23:54;;;;;;;1.92;0.80;;;19.30;99.90;;;;;;4881948;29;20059;-68
2022/07/09 09:26:27;;;;;;;3.53;0.80;;;19.30;99.90;;;;;;4882039;29;20397;-66
2022/07/09 09:29:01;;;;;;;4.60;0.80;;;19.30;99.90;;;;;;4882444;29;20390;-66
2022/07/09 09:31:31;;;;;;;4.35;0.70;;;19.30;99.90;;;;;;4881561;29;20049;-66
2022/07/09 09:34:09;;;;;;;4.20;0.80;;;19.40;99.90;;;;;;4896334;29;20061;-66
2022/07/09 09:36:44;;;;;;;3.17;0.90;;;19.40;99.90;;;;;;4881783;29;20131;-67
2022/07/09 09:39:16;;;;;;;3.20;0.70;;;19.40;99.90;;;;;;4881626;29;20057;-66
2022/07/09 09:41:44;;;;;;;3.45;0.80;;;19.40;99.90;;;;;;4881039;29;20044;-67
2022/07/09 09:44:19;;;;;;;3.50;0.80;;;19.50;99.90;;;;;;4881448;29;20089;-67
2022/07/09 09:46:46;;;;;;;3.53;0.70;;;19.50;99.90;;;;;;4882447;29;20398;-67
2022/07/09 09:49:14;;;;;;;4.13;0.70;;;19.60;99.90;;;;;;4881540;29;20045;-67
2022/07/09 09:51:49;;;;;;;4.82;0.88;;;19.70;99.90;;;;;;4881196;29;20049;-66
2022/07/09 09:54:17;;;;;;;3.22;0.93;;;19.70;99.90;;;;;;4881423;29;20041;-66
2022/07/09 09:56:43;;;;;;;2.83;0.90;;;19.70;99.90;;;;;;4879923;29;20057;-66
2022/07/09 09:59:10;;;;;;;2.50;0.70;;;19.70;99.90;;;;;;4881330;29;20441;-67
2022/07/09 10:01:38;;;;;;;3.58;0.70;;;19.70;99.90;;;;;;4881316;29;20055;-67
2022/07/09 10:04:04;;;;;;;2.10;0.70;;;19.70;99.90;;;;;;4881018;29;20505;-66
2022/07/09 10:06:30;;;;;;;1.63;0.77;;;19.60;99.90;;;;;;4880510;29;20049;-67
2022/07/09 10:08:56;;;;;;;2.78;0.73;;;19.60;99.90;;;;;;4879045;29;20128;-67
2022/07/09 10:11:22;;;;;;;2.03;0.80;;;19.60;99.90;;;;;;4879479;29;20525;-67
2022/07/09 10:13:56;;;;;;;4.38;1.00;;;19.60;99.90;;;;;;4880450;29;20385;-68
2022/07/09 10:16:43;;;;;;;4.45;1.10;;;19.60;99.90;;;;;;4880169;29;20478;-67
2022/07/09 10:19:09;;;;;;;2.28;0.93;;;19.70;99.90;;;;;;4880675;29;20124;-67
2022/07/09 10:21:36;;;;;;;2.10;0.70;;;19.80;99.90;;;;;;4880125;29;20128;-66
2022/07/09 10:24:03;;;;;;;5.65;0.98;;;20.00;99.90;;;;;;4880353;29;20045;-68
2022/07/09 10:26:42;;;;;;;2.70;0.82;;;20.10;99.90;;;;;;4880037;29;20132;-67
2022/07/09 10:29:25;;;;;;;3.42;1.00;;;20.10;99.90;;;;;;4879774;29;20049;-68
2022/07/09 10:31:52;;;;;;;5.45;1.05;;;20.10;99.90;;;;;;4880483;29;20080;-68
2022/07/09 10:34:36;;;;;;;3.90;1.10;;;20.10;99.90;;;;;;4879978;29;20121;-69
2022/07/09 10:37:04;;;;;;;2.25;0.95;;;20.10;99.90;;;;;;4879721;29;20466;-67
2022/07/09 10:39:31;;;;;;;3.03;0.90;;;20.10;99.90;;;;;;4878417;29;20077;-68
2022/07/09 10:42:05;;;;;;;1.77;0.73;;;20.10;99.90;;;;;;4879984;29;20048;-68
2022/07/09 10:44:36;;;;;;;5.18;1.00;;;20.10;99.90;;;;;;4878449;29;20080;-68
2022/07/09 10:47:03;;;;;;;3.50;1.00;;;19.90;99.90;;;;;;4879259;29;20044;-67
2022/07/09 10:49:29;;;;;;;2.38;0.85;;;19.80;99.90;;;;;;4879551;29;20097;-69
2022/07/09 10:52:01;;;;;;;4.00;0.98;;;19.60;99.90;;;;;;4879680;29;20092;-68
2022/07/09 10:54:26;;;;;;;4.50;0.90;;;19.30;99.90;;;;;;4879624;29;20049;-67
2022/07/09 10:56:54;;;;;;;5.65;0.95;;;19.10;99.90;;;;;;4877969;29;20110;-67
2022/07/09 10:59:20;;;;;;;4.65;0.95;;;19.00;99.90;;;;;;4879793;29;20056;-69
2022/07/09 11:01:50;;;;;;;5.35;1.10;;;18.90;99.90;;;;;;4879662;29;20382;-67
2022/07/09 11:04:26;;;;;;;3.90;0.80;;;18.80;99.90;;;;;;4879863;29;20080;-67
2022/07/09 11:06:51;;;;;;;5.40;0.85;;;18.80;99.90;;;;;;4879726;29;20044;-66
2022/07/09 11:09:17;;;;;;;4.57;1.15;;;18.70;99.90;;;;;;4879605;29;20060;-67
2022/07/09 11:11:43;;;;;;;4.40;0.90;;;18.70;99.90;;;;;;4879215;29;20104;-68
2022/07/09 11:14:10;;;;;;;3.40;0.90;;;18.70;99.90;;;;;;4879015;29;20049;-67
2022/07/09 11:16:37;;;;;;;5.95;1.10;;;18.70;99.90;;;;;;4879121;29;20049;-65
2022/07/09 11:19:15;;;;;;;4.65;1.20;;;18.70;99.90;;;;;;4893940;29;20053;-65
2022/07/09 11:21:41;;;;;;;5.47;1.05;;;18.70;99.90;;;;;;4879768;29;20080;-66
2022/07/09 11:24:18;;;;;;;4.20;1.30;;;18.70;99.90;;;;;;4878923;29;20561;-68
2022/07/09 11:26:47;;;;;;;6.50;1.35;;;18.80;99.90;;;;;;4877977;29;20045;-66
2022/07/09 11:29:14;;;;;;;5.22;1.00;;;18.90;99.90;;;;;;4878848;29;20489;-66
2022/07/09 11:31:49;;;;;;;6.07;0.90;;;18.90;99.90;;;;;;4879527;29;20045;-66
2022/07/09 11:34:19;;;;;;;7.15;1.13;;;18.90;99.90;;;;;;4879080;29;20085;-66
2022/07/09 11:36:52;;;;;;;5.55;0.90;;;18.90;99.90;;;;;;4877742;29;20060;-66
2022/07/09 11:39:35;;;;;;;6.47;0.80;;;18.90;99.90;;;;;;4878225;29;20041;-66
2022/07/09 11:42:02;;;;;;;3.40;0.80;;;18.80;99.90;;;;;;4879326;29;20059;-65
2022/07/09 11:44:30;;;;;;;2.45;0.88;;;19.00;99.90;;;;;;4893850;29;20055;-65
2022/07/09 11:47:06;;;;;;;6.28;0.90;;;19.00;99.90;;;;;;4879162;29;20037;-65
2022/07/09 11:49:40;;;;;;;6.75;0.80;;;19.00;99.90;;;;;;4878887;29;20105;-66
2022/07/09 11:52:19;;;;;;;4.28;0.60;;;19.00;99.90;;;;;;4893327;29;20053;-66
2022/07/09 11:55:09;;;;;;;3.33;0.65;;;19.00;99.90;;;;;;4878551;29;20391;-67
2022/07/09 11:57:38;;;;;;;5.40;0.77;;;19.00;99.90;;;;;;4879479;29;20080;-65
2022/07/09 12:00:19;;;;;;;3.10;0.73;;;19.00;99.90;;;;;;4878673;29;20045;-65
2022/07/09 12:02:45;;;;;;;4.95;1.10;;;19.00;99.90;;;;;;4881086;29;20057;-67
2022/07/09 12:05:11;;;;;;;3.13;0.60;;;18.90;99.90;;;;;;4883009;29;20178;-65
2022/07/09 12:07:37;;;;;;;4.95;0.82;;;19.00;99.90;;;;;;4882463;29;20141;-66
2022/07/09 12:10:08;;;;;;;3.13;0.52;;;19.60;99.90;;;;;;4882169;29;20088;-66
2022/07/09 12:12:35;;;;;;;2.63;0.57;;;19.00;99.90;;;;;;4881450;29;20048;-65
2022/07/09 12:15:02;;;;;;;5.10;0.50;;;19.10;99.90;;;;;;4881445;29;20532;-67
2022/07/09 12:17:30;;;;;;;5.80;0.73;;;19.10;99.90;;;;;;4881875;29;20550;-65
2022/07/09 12:19:57;;;;;;;6.50;0.70;;;19.10;99.90;;;;;;4881813;29;20048;-67
2022/07/09 12:22:23;;;;;;;2.97;0.50;;;19.10;99.90;;;;;;4896108;29;20538;-66
2022/07/09 12:24:51;;;;;;;2.28;0.50;;;19.10;99.90;;;;;;4882386;29;20060;-67
2022/07/09 12:27:17;;;;;;;4.15;0.60;;;19.10;99.90;;;;;;4896507;29;20041;-67
2022/07/09 12:29:43;;;;;;;1.77;0.40;;;19.00;99.90;;;;;;4881976;29;20461;-65
2022/07/09 12:32:09;;;;;;;1.67;0.40;;;19.00;99.90;;;;;;4881783;29;20060;-66
2022/07/09 12:34:35;;;;;;;4.13;0.50;;;19.00;99.90;;;;;;4881235;29;20064;-68
2022/07/09 12:37:01;;;;;;;2.92;0.50;;;19.00;99.90;;;;;;4881899;29;20052;-66
2022/07/09 12:39:27;;;;;;;4.45;0.70;;;19.00;99.90;;;;;;4881641;29;20055;-65
2022/07/09 12:41:52;;;;;;;2.65;0.85;;;19.00;99.90;;;;;;4881458;29;20053;-66
2022/07/09 12:44:18;;;;;;;1.35;0.40;;;19.00;99.90;;;;;;4881145;29;20084;-66